Saint Médard d'Aunis (17)                     Juillet 2021                                
  Température (°C) - Abri Young à ventilation mécanique 43502 (moy/5min)  Davis 7714 (moy/1min) Humidité Vent Davis (km/h) PeetBros Instromet Précipitations (mm) Pression (hPa) Divers  
Date Maxi USCRN /5min Mini  USCRN /5min Moy de 1440 relevés Moy (tx+tn)/2 Index chaleur moyen Index chaleur maxi Froid dû au vent moy/5min  Froid dû au vent mini/5min   Amplitude (tx-tn) Tx OMM/1min Tn OMM/1min Moy de 1440 relevés Moy (tx+tn)/2 Relative maxi Relative mini Relative moy de 1440 relevés Relative moy (hx+hn)/2 Point de rosée maxi Point de rosée mini Point de rosée moy 1440 relevés Vent moy maxi (10min) Vent  moyen (24h) Direction dominante Rafales (km/h) maxi Direction rafale maxi Rafales moy (24h) Rafales (km/h)   maxi Rafales (km/h)   maxi Total du jour (mm) Durée en heures et dixièmes Intensité maxi sur 1 min (mm/h) Maxi Mini Moy de 1440 relevés Moy (px+pn)/2 Variation Epaisseur neige (cm) Remarques diverses    
01/07/2021 25,4 11,6 17,71 18,49 17,95 25,9 17,35 11,4 13,6 25,8 11,5 17,82 18,65 97% 59% 83,9% 78,0% 18,8 10,9 14,63 19,14 7,85 W 29,0 SW 10,65 29,6 28 0,0 0,0 0,0 1019,5 1017,9 1018,74 1018,70 1,6   Brouillard, ciel entre 2/8 et 8/8 le matin, entre 2/8 et 6/8 l'après-midi  
02/07/2021 24,5 12,3 17,99 18,38 18,24 25,3 17,74 12,2 12,2 25,0 12,3 18,07 18,65 96% 64% 84,0% 80,0% 18,1 11,5 14,97 18,50 6,63 WNW 27,4 W 9,27 27,7 26 0,0 0,0 0,0 1018,4 1015,2 1017,22 1016,80 3,2   Ciel entre 4/8 et 8/8 le matin, 4/8 à 8/8 l'après-midi, traces de précipitations  
03/07/2021 23,0 14,6 18,13 18,81 18,48 23,9 17,47 14,5 8,4 23,0 14,5 18,17 18,75 96% 71% 88,1% 83,5% 19,5 13,3 15,96 22,98 9,73 WSW 33,8 WSW 12,91 33,1 33 1,4 0,5 12,0 1017,1 1014,9 1016,25 1016,00 2,2   Ciel 8/8 le matin, pluie, entre 6/8 et 8/8 l'après-midi  
04/07/2021 21,0 16,0 17,82 18,49 18,22 21,6 16,63 13,8 5,0 21,1 15,8 17,80 18,45 96% 77% 90,8% 86,5% 18,1 15,0 16,19 33,00 14,75 WSW 49,9 WSW 20,31 51,1 54 7,4 1,5 96,0 1015,1 1011,9 1013,94 1013,50 3,2   Ciel 5/8 à 8/8, pluie  
05/07/2021 24,0 16,5 19,90 20,22 20,33 24,8 18,38 13,4 7,5 24,2 16,4 19,93 20,30 95% 64% 81,9% 79,5% 18,4 14,2 16,51 37,33 17,78 SW 59,5 W 24,78 62,4 65 2,6 0,7 12,0 1012,2 1006,4 1009,99 1009,30 5,8   Ciel 7/8 à 8/8 le matin, entre 5/8 et 8/8 l'après-midi, tonnerre, pluie  
06/07/2021 21,8 15,1 18,05 18,44 18,03 21,6 16,14 12,1 6,6 21,8 15,1 18,11 18,45 89% 62% 75,7% 75,5% 15,5 12,0 13,50 26,56 19,13 WSW 49,9 W 25,82 50,2 52 0,0 0,0 0,0 1014,7 1008,5 1012,19 1011,60 6,2   Ciel entre 4/8 et 6/8  
07/07/2021 21,4 12,0 17,29 16,69 17,33 21,1 16,43 12,0 9,3 21,5 11,9 17,34 16,70 94% 59% 80,9% 76,5% 15,5 11,0 13,69 25,08 12,55 W 37,0 W 16,70 40,4 41 3,2 0,3 48,0 1022,1 1014,2 1017,66 1018,15 7,9   Ciel entre 3/8 et 8/8 le matin, averses, entre 3/8 et 6/8 ensuite  
08/07/2021 21,6 11,1 16,62 16,38 16,70 21,6 15,87 10,4 10,5 21,8 11,2 16,69 16,50 96% 64% 83,0% 80,0% 15,5 10,3 13,46 24,92 10,16 WSW 37,0 WSW 13,47 36,7 40 0,4 0,2 12,0 1026,2 1021,7 1024,09 1023,95 4,5   Ciel 2/8 à 8/8 le matin, pluie faible, 8/8 à 2/8 l'après-midi  
09/07/2021 21,9 10,4 16,06 16,13 16,06 22,1 15,93 10,4 11,7 22,1 10,1 16,07 16,10 96% 59% 82,8% 77,5% 15,4 9,6 12,84 16,74 5,00 NW 25,7 NW 7,08 25,5 24 0,0 0,0 0,0 1025,9 1020,3 1023,45 1023,10 5,6   Ciel 2/8 à 8/8 le matin, 8/8 à 6/8 l'après-midi, traces de précipitations  
10/07/2021 21,3 11,4 16,69 16,33 16,82 21,6 15,79 11,4 9,9 21,2 11,5 16,71 16,35 94% 68% 83,7% 81,0% 17,6 10,3 13,73 29,63 11,44 WSW 43,5 WSW 15,17 43,6 43 0,4 0,2 12,0 1020,3 1017,6 1018,62 1018,95 2,7   Ciel 2/8 à 8/8 le matin, 8/8 à 3/8 l'après-midi, pluie faible  
11/07/2021 25,3 15,1 19,46 20,18 19,66 25,8 19,13 15,0 10,2 26,4 15,1 19,57 20,75 92% 53% 77,3% 72,5% 17,0 13,6 15,04 19,94 7,89 WNW 27,4 WNW 10,89 30,1 29 0,4 0,2 12,0 1019,0 1011,2 1014,98 1015,10 7,8   Ciel entre 2/8 et 8/8 le matin, 7/8 à 3/8 ensuite, 8/8 le soir, pluie, tonnerre  
12/07/2021 21,6 14,5 17,36 18,06 17,43 21,4 15,92 11,7 6,9 21,6 14,6 17,36 18,10 95% 62% 83,0% 78,5% 15,7 12,4 14,19 28,18 15,27 WNW 43,5 W 20,01 44,1 44 15,0 1,2 84,0 1016,5 1010,5 1013,21 1013,50 6,0   Ciel entre 6/8 et 8/8, pluie, tonnerre, 3/8 le soir  
13/07/2021 20,7 13,0 16,87 16,85 17,12 21,3 15,06 12,0 7,7 20,6 13,1 16,82 16,85 94% 79% 89,0% 86,5% 17,1 11,9 14,92 36,84 18,52 WNW 53,1 WNW 24,52 55,1 55 1,6 0,6 12,0 1019,2 1015,6 1016,86 1017,40 3,6   Ciel 3/8 à 8/8 le matin, pluie, entre 7/8 et 8/8 l'après-midi  
14/07/2021 21,3 14,5 17,56 17,87 17,82 21,5 16,36 13,4 6,8 21,4 14,6 17,59 18,00 95% 74% 87,0% 84,5% 16,8 13,3 15,22 23,31 14,79 W 35,4 WNW 19,07 33,4 33 0,0 0,0 0,0 1022,8 1019,0 1021,01 1020,90 3,8   Ciel 5/8 à 8/8 le matin, 8/8 à 3/8 l'après-midi  
15/07/2021 23,6 13,5 19,05 18,56 19,28 24,2 18,08 13,4 9,9 23,5 13,5 19,04 18,50 96% 66% 81,4% 81,0% 17,9 12,9 15,50 25,42 13,16 WNW 38,6 W 17,05 37,5 37 0,0 0,0 0,0 1023,2 1021,5 1022,43 1022,35 1,7   Ciel entre 1/8 et 3/8 le matin, entre 1/8 et 6/8 l'après-midi  
16/07/2021 24,4 14,0 19,09 19,23 19,24 24,7 18,58 13,9 10,4 24,4 13,4 19,05 18,90 94% 57% 78,0% 75,5% 16,5 12,8 14,77 18,82 10,14 NE 32,2 NE 13,92 35,6 35 0,0 0,0 0,0 1024,5 1022,2 1023,30 1023,35 2,3   Ciel 0/8 à 5/8 le matin, entre 5/8 et  7/8 l'après-midi, 0/8 le soir  
17/07/2021 27,4 13,2 20,64 20,34 20,91 28,1 20,10 12,9 14,2 27,6 13,2 20,62 20,40 94% 54% 74,7% 74,0% 18,4 12,2 15,52 19,78 11,19 ENE 32,2 ENE 15,72 32,7 32 0,0 0,0 0,0 1024,3 1020,9 1022,83 1022,60 3,4   Ciel 0/8  
18/07/2021 31,3 15,2 23,34 23,28 23,61 31,4 22,84 15,0 16,0 31,3 15,2 23,28 23,25 93% 32% 66,8% 62,5% 20,1 12,2 15,77 25,89 13,00 NE 40,2 NE 17,70 43,5 40 0,0 0,0 0,0 1021,7 1017,4 1019,58 1019,55 4,3   Ciel entre 0/8 et 1/8  
19/07/2021 32,7 17,2 24,97 24,98 25,34 33,2 24,47 16,7 15,4 32,9 17,2 24,93 25,05 86% 37% 61,0% 61,5% 18,8 14,2 16,14 26,89 14,64 NE 43,5 ENE 20,31 47,7 46 0,0 0,0 0,0 1018,4 1014,2 1016,35 1016,30 4,2   Ciel 0/8  
20/07/2021 32,6 19,0 25,53 25,78 25,61 32,4 25,00 17,8 13,6 32,7 18,7 25,53 25,70 77% 31% 55,7% 54,0% 17,9 12,9 15,15 26,71 14,88 ENE 45,1 NE 20,88 45,3 43 0,0 0,0 0,0 1017,7 1014,7 1015,54 1016,20 3,0   Ciel 0/8 le matin, entre 0/8 et 1/8 l'après-midi  
21/07/2021 32,0 18,0 24,80 24,96 24,85 32,3 24,42 17,2 14,1 32,1 18,0 24,77 25,05 79% 33% 57,2% 56,0% 17,0 13,2 14,96 20,42 12,26 ENE 37,0 ENE 16,83 37,1 36 0,0 0,0 0,0 1019,5 1017,3 1018,50 1018,40 2,2   Ciel entre 0/8 et 1/8  
22/07/2021 32,5 16,9 24,87 24,71 24,88 32,4 24,61 16,7 15,6 32,7 16,8 24,80 24,75 82% 31% 57,4% 56,5% 17,7 12,9 14,90 20,74 11,38 ENE 35,4 ENE 16,41 35,1 35 0,0 0,0 0,0 1019,0 1013,8 1016,62 1016,40 5,2   Ciel 0/8 à 3/8  
23/07/2021 24,9 18,1 21,05 21,47 21,68 26,3 20,37 17,1 6,8 24,7 18,0 21,06 21,35 91% 67% 79,8% 79,0% 21,4 14,0 17,27 27,70 12,21 WSW 38,6 WSW 16,79 41,5 41 0,0 0,0 0,0 1013,9 1008,9 1010,63 1011,40 5,0   Ciel entre 3/8 et 8/8 le matin, 8/8 à 4/8 l'après-midi, traces de précipitations  
24/07/2021 24,1 15,5 19,50 19,83 19,95 24,9 18,30 14,4 8,6 24,0 15,5 19,51 19,75 95% 65% 84,4% 80,0% 18,9 14,5 16,58 32,84 15,98 SW 49,9 SW 22,28 52,6 54 12,4 1,8 60,0 1011,5 1009,8 1010,66 1010,65 1,7   Ciel entre 3/8 et 8/8, averses  
25/07/2021 22,9 16,0 19,45 19,43 19,88 23,6 18,06 14,6 6,8 23,0 16,0 19,46 19,50 95% 69% 85,3% 82,0% 18,6 14,8 16,71 27,69 17,19 W 41,8 WSW 21,70 40,0 41 5,4 0,4 60,0 1013,6 1008,8 1011,02 1011,20 4,8   Ciel entre 4/8 et 8/8 le matin, averses, entre 2/8 et 7/8 l'après-midi  
26/07/2021 23,4 15,0 19,35 19,19 19,71 24,2 18,45 14,6 8,4 23,4 15,0 19,36 19,20 95% 67% 83,7% 81,0% 18,5 14,0 16,29 25,09 13,36 W 38,6 WSW 16,98 41,0 41 0,4 0,2 12,0 1016,5 1013,1 1015,20 1014,80 3,4   Ciel entre 4/8 et 8/8 le matin, faibles averses, entre 1/8 et 6/8 ensuite  
27/07/2021 22,8 15,0 18,58 18,89 19,06 23,5 17,81 14,9 7,8 22,7 14,9 18,61 18,80 94% 74% 89,3% 84,0% 18,9 14,0 16,66 27,85 11,61 WSW 38,6 WSW 15,59 40,2 42 2,8 0,7 24,0 1015,9 1013,7 1014,46 1014,80 2,2   Ciel entre 6/8 et 8/8, pluie, averses  
28/07/2021 22,3 13,1 18,06 17,71 18,15 22,6 17,15 13,1 9,1 22,6 12,9 18,12 17,75 95% 62% 81,3% 78,5% 16,8 12,1 14,51 26,22 12,03 WSW 40,2 W 15,44 40,9 41 0,0 0,0 0,0 1018,2 1015,5 1017,00 1016,85 2,7   Ciel entre 2/8 et 8/8  
29/07/2021 24,2 12,3 18,15 18,21 18,22 24,5 17,80 11,9 11,7 24,5 11,8 18,23 18,15 96% 54% 78,0% 75,0% 17,6 11,4 13,78 18,34 8,06 WSW 29,0 WSW 10,91 30,1 28 0,0 0,0 0,0 1017,9 1013,8 1015,83 1015,85 4,1   Ciel entre 2/8 et 6/8 le matin, 3/8 à 0/8 l'après-midi  
30/07/2021 22,1 12,2 17,95 17,15 17,94 21,7 16,65 11,7 9,9 22,0 12,1 17,84 17,05 94% 54% 78,1% 74,0% 17,0 11,2 13,72 28,17 15,23 WNW 41,8 W 19,50 43,5 42 0,4 0,2 12,0 1016,1 1012,6 1014,53 1014,35 3,5   Ciel 3/8 à 8/8 le matin, 7/8 à 2/8 l'après-midi  
31/07/2021 22,0 12,7 17,50 17,34 17,43 21,3 16,86 12,7 9,0 21,9 12,6 17,47 17,25 96% 55% 79,0% 75,5% 15,7 11,2 13,48 26,39 9,31 WNW 37,0 W 12,35 37,8 37 1,0 0,1 24,0 1015,6 1014,3 1015,03 1014,95 1,3   Ciel entre 2/8 et 8/8 le matin, pluie faible, 3/8 à 6/8 l'après-midi  
  Température (°C) - Abri Young à ventilation mécanique 43502 (moy/5min)  Davis 7714 (moy/1min) Humidité Vent Davis (km/h) PeetBros Instromet Précipitations (mm) Pression (hPa) Divers  
PT1000 Maxi USCRN /5min Mini  USCRN /5min Moy de 1440 relevés Moy (tx+tn)/2 Index chaleur moyen Index chaleur maxi Froid dû au vent moy/5min  Froid dû au vent mini/5min   Amplitude (tx-tn) Tx OMM/1min Tn OMM/1min Moy de 1440 relevés Moy (tx+tn)/2 Relative maxi Relative mini Relative moy de 1440 relevés Relative moy (hx+hn)/2 Point de rosée maxi Point de rosée mini Point de rosée moy 1440 relevés Vent moy maxi (10min) Vent  moyen (24h) Direction dominante Rafales (km/h) maxi Direction rafale maxi Rafales moy (24h) Rafales (km/h)   maxi Rafales (km/h)   maxi Total du jour (mm) Durée en heures et dixièmes Intensité maxi sur 1 min (mm/h) Maxi Mini Moy de 1440 relevés Moy (px+pn)/2 Variation Epaisseur neige (cm) Remarques diverses  
Maxi 32,7 19,0 25,53 25,78 25,61 33,2 25,00 17,8 16,0 32,9 18,7 25,53 25,70 97% 79% 90,8% 86,5% 21,4 15,0 17,27 37,33 19,13 WSW 59,5 W 25,82 62,4 65 15,0 1,8 96,0 1026,2 1022,2 1024,09 1023,95 7,9 0,0    
Mini 20,7 10,4 16,06 16,13 16,06 21,1 15,06 10,4 5,0 20,6 10,1 16,07 16,10 77% 31% 55,7% 54,0% 15,4 9,6 12,84 16,74 5,00   25,7   7,08 25,5 24       1011,5 1006,4 1009,99 1009,30 1,3      
Moy 24,52 14,35 19,34 19,43 19,55 24,86 18,51 13,62 10,12 24,63 14,27 19,35 19,45 92,8% 58,8% 78,8% 75,8% 17,64 12,57 15,05 25,39 12,49   39,09   16,81 40,16 39,9       1018,60 1014,75 1016,70 1016,68 3,84      
Total                                                         54,8 8,5             0,0    
   
Observations    
Jours Rafales >= 36,0 km/h Rafales >= 57,6 km/h Rafales >= 75,6 km/h Rafales >= 100,8 km/h Précipi. >= 0,1 mm Précipi. >= 1,0 mm Précipi. >= 5,0 mm Précipi. >= 10,0 mm Tx <= 0 Tx <= -5 Tx <= -10 Tx >= 20 Tx >= 25 Tx >= 30 Tx >= 35 Tx >= 40 Tn <= 0 Tn <= -5 Tn <= -10 Tn <= -15 Tn <= -20 T moy <= 0 T moy <=     -5 T moy <=     -10 T moy >= 20 T moy >= 25 T moy >= 30 Grêle Grésil Brouillard Brume Orage Neige        
01/07/2021 0 0 0 0 0 0 0 0 0 0 0 1 1 0 0 0 0 0 0 0 0 0 0 0 0 0 0 0 0 1 0 0 0    
02/07/2021 0 0 0 0 0 0 0 0 0 0 0 1 0 0 0 0 0 0 0 0 0 0 0 0 0 0 0 0 0 0 0 0 0    
03/07/2021 0 0 0 0 1 1 0 0 0 0 0 1 0 0 0 0 0 0 0 0 0 0 0 0 0 0 0 0 0 0 0 0 0    
04/07/2021 1 0 0 0 1 1 1 0 0 0 0 1 0 0 0 0 0 0 0 0 0 0 0 0 0 0 0 0 0 0 0 0 0    
05/07/2021 1 1 0 0 1 1 0 0 0 0 0 1 0 0 0 0 0 0 0 0 0 0 0 0 0 0 0 0 0 0 0 1 0    
06/07/2021 1 0 0 0 0 0 0 0 0 0 0 1 0 0 0 0 0 0 0 0 0 0 0 0 0 0 0 0 0 0 0 0 0    
07/07/2021 1 0 0 0 1 1 0 0 0 0 0 1 0 0 0 0 0 0 0 0 0 0 0 0 0 0 0 0 0 0 0 0 0    
08/07/2021 1 0 0 0 1 0 0 0 0 0 0 1 0 0 0 0 0 0 0 0 0 0 0 0 0 0 0 0 0 0 0 0 0    
09/07/2021 0 0 0 0 0 0 0 0 0 0 0 1 0 0 0 0 0 0 0 0 0 0 0 0 0 0 0 0 0 0 0 0 0    
10/07/2021 1 0 0 0 1 0 0 0 0 0 0 1 0 0 0 0 0 0 0 0 0 0 0 0 0 0 0 0 0 0 0 0 0    
11/07/2021 0 0 0 0 1 0 0 0 0 0 0 1 1 0 0 0 0 0 0 0 0 0 0 0 0 0 0 0 0 0 0 1 0    
12/07/2021 1 0 0 0 1 1 1 1 0 0 0 1 0 0 0 0 0 0 0 0 0 0 0 0 0 0 0 0 0 0 0 1 0    
13/07/2021 1 0 0 0 1 1 0 0 0 0 0 1 0 0 0 0 0 0 0 0 0 0 0 0 0 0 0 0 0 0 0 0 0    
14/07/2021 0 0 0 0 0 0 0 0 0 0 0 1 0 0 0 0 0 0 0 0 0 0 0 0 0 0 0 0 0 0 0 0 0    
15/07/2021 1 0 0 0 0 0 0 0 0 0 0 1 0 0 0 0 0 0 0 0 0 0 0 0 0 0 0 0 0 0 0 0 0    
16/07/2021 0 0 0 0 0 0 0 0 0 0 0 1 0 0 0 0 0 0 0 0 0 0 0 0 0 0 0 0 0 0 0 0 0    
17/07/2021 0 0 0 0 0 0 0 0 0 0 0 1 1 0 0 0 0 0 0 0 0 0 0 0 0 0 0 0 0 0 0 0 0    
18/07/2021 1 0 0 0 0 0 0 0 0 0 0 1 1 1 0 0 0 0 0 0 0 0 0 0 0 0 0 0 0 0 0 0 0    
19/07/2021 1 0 0 0 0 0 0 0 0 0 0 1 1 1 0 0 0 0 0 0 0 0 0 0 0 0 0 0 0 0 0 0 0    
20/07/2021 1 0 0 0 0 0 0 0 0 0 0 1 1 1 0 0 0 0 0 0 0 0 0 0 0 0 0 0 0 0 0 0 0    
21/07/2021 1 0 0 0 0 0 0 0 0 0 0 1 1 1 0 0 0 0 0 0 0 0 0 0 0 0 0 0 0 0 0 0 0    
22/07/2021 0 0 0 0 0 0 0 0 0 0 0 1 1 1 0 0 0 0 0 0 0 0 0 0 0 0 0 0 0 0 0 0 0    
23/07/2021 1 0 0 0 0 0 0 0 0 0 0 1 0 0 0 0 0 0 0 0 0 0 0 0 0 0 0 0 0 0 0 0 0    
24/07/2021 1 0 0 0 1 1 1 1 0 0 0 1 0 0 0 0 0 0 0 0 0 0 0 0 0 0 0 0 0 0 0 0 0    
25/07/2021 1 0 0 0 1 1 1 0 0 0 0 1 0 0 0 0 0 0 0 0 0 0 0 0 0 0 0 0 0 0 0 0 0    
26/07/2021 1 0 0 0 1 0 0 0 0 0 0 1 0 0 0 0 0 0 0 0 0 0 0 0 0 0 0 0 0 0 0 0 0    
27/07/2021 1 0 0 0 1 1 0 0 0 0 0 1 0 0 0 0 0 0 0 0 0 0 0 0 0 0 0 0 0 0 0 0 0    
28/07/2021 1 0 0 0 0 0 0 0 0 0 0 1 0 0 0 0 0 0 0 0 0 0 0 0 0 0 0 0 0 0 0 0 0    
29/07/2021 0 0 0 0 0 0 0 0 0 0 0 1 0 0 0 0 0 0 0 0 0 0 0 0 0 0 0 0 0 0 0 0 0        
30/07/2021 1 0 0 0 1 0 0 0 0 0 0 1 0 0 0 0 0 0 0 0 0 0 0 0 0 0 0 0 0 0 0 0 0    
31/07/2021 1 0 0 0 1 1 0 0 0 0 0 1 0 0 0 0 0 0 0 0 0 0 0 0 0 0 0 0 0 0 0 0 0    
   
  Rafales >= 36,0 km/h Rafales >= 57,6 km/h Rafales >= 75,6 km/h Rafales >= 100,8 km/h Précipi. >= 0,1 mm Précipi. >= 1,0 mm Précipi. >= 5,0 mm Précipi. >= 10,0 mm Tx <=0 Tx <= -5 Tx <= -10 Tx >= 20 Tx >= 25 Tx >= 30 Tx >= 35 Tx >= 40 Tn <= 0 Tn <= -5 Tn <= -10 Tn <= -15 Tn <= -20 T moy <= 0 T moy <=  -5 T moy <=  -10 T moy >= 20 T moy >= 25 T moy >= 30 Grêle Grésil Brouillard Brume Orage Neige        
Total 21 1 0 0 15 10 4 2 0 0 0 31 8 5 0 0 0 0 0 0 0 0 0 0 0 0 0 0 0 1 0 3 0